KYUM/YUM METAR and TAF weather

Enter ICAO airport designator
Station Type Date Time Source
KYUM METAR 2008/11/07 11:20 UTC NOAA

KYUM 071120Z 0712/0812 01006KT P6SM SKC FM071700 02012KT P6SM SKC FM080100 33005KT P6SM SKC


Station Type Date Time Source
KYUM Decoded METAR 2008/11/07 11:20 UTC NOAA

Yuma / Yuma International, AZ, United States (KYUM) 32-39N 114-36W 63M
Nov 07, 2008 - 06:20 AM EST / 2008.11.07 1120 UTC
Wind: from the N (010 degrees) at 7 MPH (6 KT):0
Sky conditions: clear
ob: KYUM 071120Z 0712/0812 01006KT P6SM SKC FM071700 02012KT P6SM SKC FM080100 33005KT P6SM SKC
cycle: 11

Station Type Date Time Source
KYUM TAF 2008/12/16 14:55 UTC NOAA

TAF
AMD KYUM 161455Z 1615/1712 VRB05KT 5SM -SHRA BR SCT020 BKN030 OVC040
TEMPO 1615/1617 3SM RA
FM161900 32005KT P6SM BKN045 BKN070
FM170100 11005KT P6SM SCT050 BKN090
FM170600 10005KT P6SM VCSH FEW025 BKN035 BKN060


Example: see airport list